sensor_id;sensor_type;location;lat;lon;timestamp;P1;durP1;ratioP1;P2;durP2;ratioP2
57113;SDS011;42994;51.606;9.988;2023-07-20T00:01:13;8.75;;;6.30;;
57113;SDS011;42994;51.606;9.988;2023-07-20T00:03:40;9.00;;;6.97;;
57113;SDS011;42994;51.606;9.988;2023-07-20T00:06:07;13.10;;;8.32;;
57113;SDS011;42994;51.606;9.988;2023-07-20T00:08:34;11.50;;;9.18;;
57113;SDS011;42994;51.606;9.988;2023-07-20T00:11:01;10.55;;;9.45;;
57113;SDS011;42994;51.606;9.988;2023-07-20T00:13:29;9.68;;;8.68;;
57113;SDS011;42994;51.606;9.988;2023-07-20T00:15:55;12.98;;;9.20;;
57113;SDS011;42994;51.606;9.988;2023-07-20T00:18:22;12.00;;;9.82;;
57113;SDS011;42994;51.606;9.988;2023-07-20T00:20:49;15.70;;;11.52;;
57113;SDS011;42994;51.606;9.988;2023-07-20T00:23:16;15.57;;;12.13;;
57113;SDS011;42994;51.606;9.988;2023-07-20T00:25:42;17.63;;;12.75;;
57113;SDS011;42994;51.606;9.988;2023-07-20T00:28:09;30.55;;;14.18;;
57113;SDS011;42994;51.606;9.988;2023-07-20T00:30:39;21.13;;;15.30;;
57113;SDS011;42994;51.606;9.988;2023-07-20T00:33:10;19.10;;;10.10;;
57113;SDS011;42994;51.606;9.988;2023-07-20T00:35:37;8.20;;;4.10;;
57113;SDS011;42994;51.606;9.988;2023-07-20T00:38:04;19.40;;;3.85;;
57113;SDS011;42994;51.606;9.988;2023-07-20T00:40:35;7.57;;;3.90;;
57113;SDS011;42994;51.606;9.988;2023-07-20T00:43:02;10.60;;;2.97;;
57113;SDS011;42994;51.606;9.988;2023-07-20T00:45:29;1.45;;;1.02;;
57113;SDS011;42994;51.606;9.988;2023-07-20T00:47:57;1.40;;;1.30;;
57113;SDS011;42994;51.606;9.988;2023-07-20T00:50:24;1.65;;;1.55;;
57113;SDS011;42994;51.606;9.988;2023-07-20T00:52:53;1.85;;;1.45;;
57113;SDS011;42994;51.606;9.988;2023-07-20T00:55:20;2.38;;;1.40;;
57113;SDS011;42994;51.606;9.988;2023-07-20T00:57:48;1.48;;;1.10;;
57113;SDS011;42994;51.606;9.988;2023-07-20T01:00:15;0.80;;;0.80;;
57113;SDS011;42994;51.606;9.988;2023-07-20T01:02:42;3.00;;;1.58;;
57113;SDS011;42994;51.606;9.988;2023-07-20T01:05:10;1.02;;;1.00;;
57113;SDS011;42994;51.606;9.988;2023-07-20T01:07:38;1.83;;;1.65;;
57113;SDS011;42994;51.606;9.988;2023-07-20T01:10:12;2.78;;;1.20;;
57113;SDS011;42994;51.606;9.988;2023-07-20T01:12:46;2.38;;;1.40;;
57113;SDS011;42994;51.606;9.988;2023-07-20T01:15:15;3.25;;;1.63;;
57113;SDS011;42994;51.606;9.988;2023-07-20T01:17:42;1.92;;;1.70;;
57113;SDS011;42994;51.606;9.988;2023-07-20T01:20:12;4.20;;;1.42;;
57113;SDS011;42994;51.606;9.988;2023-07-20T01:25:21;4.00;;;1.88;;
57113;SDS011;42994;51.606;9.988;2023-07-20T01:31:14;3.35;;;1.60;;
57113;SDS011;42994;51.606;9.988;2023-07-20T01:33:43;2.17;;;1.98;;
57113;SDS011;42994;51.606;9.988;2023-07-20T01:36:12;3.25;;;2.35;;
57113;SDS011;42994;51.606;9.988;2023-07-20T01:38:40;6.05;;;2.85;;
57113;SDS011;42994;51.606;9.988;2023-07-20T01:41:08;7.55;;;2.95;;
57113;SDS011;42994;51.606;9.988;2023-07-20T01:43:36;4.72;;;2.90;;
57113;SDS011;42994;51.606;9.988;2023-07-20T01:46:04;8.77;;;2.80;;
57113;SDS011;42994;51.606;9.988;2023-07-20T01:48:32;5.95;;;3.47;;
57113;SDS011;42994;51.606;9.988;2023-07-20T01:51:00;6.55;;;3.35;;
57113;SDS011;42994;51.606;9.988;2023-07-20T01:53:27;4.43;;;3.58;;
57113;SDS011;42994;51.606;9.988;2023-07-20T01:55:54;7.97;;;3.47;;
57113;SDS011;42994;51.606;9.988;2023-07-20T01:58:21;4.47;;;4.07;;
57113;SDS011;42994;51.606;9.988;2023-07-20T02:00:47;5.60;;;4.47;;
57113;SDS011;42994;51.606;9.988;2023-07-20T02:03:14;8.07;;;4.53;;
57113;SDS011;42994;51.606;9.988;2023-07-20T02:05:43;5.00;;;4.18;;
57113;SDS011;42994;51.606;9.988;2023-07-20T02:08:10;5.70;;;5.00;;
57113;SDS011;42994;51.606;9.988;2023-07-20T02:10:36;5.47;;;4.72;;
57113;SDS011;42994;51.606;9.988;2023-07-20T02:13:03;5.38;;;4.88;;
57113;SDS011;42994;51.606;9.988;2023-07-20T02:15:30;7.00;;;4.90;;
57113;SDS011;42994;51.606;9.988;2023-07-20T02:17:56;6.20;;;5.22;;
57113;SDS011;42994;51.606;9.988;2023-07-20T02:20:23;7.90;;;5.28;;
57113;SDS011;42994;51.606;9.988;2023-07-20T02:22:51;6.32;;;5.32;;
57113;SDS011;42994;51.606;9.988;2023-07-20T02:25:18;14.93;;;5.35;;
57113;SDS011;42994;51.606;9.988;2023-07-20T02:27:45;4.72;;;4.25;;
57113;SDS011;42994;51.606;9.988;2023-07-20T02:30:12;8.52;;;5.47;;
57113;SDS011;42994;51.606;9.988;2023-07-20T02:32:39;7.32;;;5.05;;
57113;SDS011;42994;51.606;9.988;2023-07-20T02:35:06;6.80;;;5.10;;
57113;SDS011;42994;51.606;9.988;2023-07-20T02:37:33;11.55;;;6.13;;
57113;SDS011;42994;51.606;9.988;2023-07-20T02:40:01;8.88;;;6.43;;
57113;SDS011;42994;51.606;9.988;2023-07-20T02:42:29;8.02;;;6.22;;
57113;SDS011;42994;51.606;9.988;2023-07-20T02:44:56;8.13;;;6.70;;
57113;SDS011;42994;51.606;9.988;2023-07-20T02:47:22;7.63;;;6.55;;
57113;SDS011;42994;51.606;9.988;2023-07-20T02:49:49;8.32;;;7.15;;
57113;SDS011;42994;51.606;9.988;2023-07-20T02:52:16;10.90;;;7.82;;
57113;SDS011;42994;51.606;9.988;2023-07-20T02:54:42;10.98;;;8.13;;
57113;SDS011;42994;51.606;9.988;2023-07-20T02:57:11;10.93;;;8.60;;
57113;SDS011;42994;51.606;9.988;2023-07-20T02:59:37;12.50;;;8.10;;
57113;SDS011;42994;51.606;9.988;2023-07-20T03:02:04;11.13;;;8.90;;
57113;SDS011;42994;51.606;9.988;2023-07-20T03:04:35;10.80;;;8.00;;
57113;SDS011;42994;51.606;9.988;2023-07-20T03:07:02;9.30;;;7.20;;
57113;SDS011;42994;51.606;9.988;2023-07-20T03:09:29;9.75;;;7.25;;
57113;SDS011;42994;51.606;9.988;2023-07-20T03:11:56;7.88;;;6.93;;
57113;SDS011;42994;51.606;9.988;2023-07-20T03:14:24;9.48;;;7.68;;
57113;SDS011;42994;51.606;9.988;2023-07-20T03:16:51;9.13;;;7.03;;
57113;SDS011;42994;51.606;9.988;2023-07-20T03:19:17;7.47;;;6.30;;
57113;SDS011;42994;51.606;9.988;2023-07-20T03:21:44;8.77;;;6.38;;
57113;SDS011;42994;51.606;9.988;2023-07-20T03:24:10;8.40;;;6.78;;
57113;SDS011;42994;51.606;9.988;2023-07-20T03:26:37;10.93;;;6.88;;
57113;SDS011;42994;51.606;9.988;2023-07-20T03:29:05;9.88;;;7.60;;
57113;SDS011;42994;51.606;9.988;2023-07-20T03:31:35;20.40;;;8.32;;
57113;SDS011;42994;51.606;9.988;2023-07-20T03:34:01;7.95;;;7.15;;
57113;SDS011;42994;51.606;9.988;2023-07-20T03:36:28;9.65;;;7.28;;
57113;SDS011;42994;51.606;9.988;2023-07-20T03:38:56;8.13;;;7.35;;
57113;SDS011;42994;51.606;9.988;2023-07-20T03:41:23;9.13;;;7.35;;
57113;SDS011;42994;51.606;9.988;2023-07-20T03:43:50;10.55;;;5.72;;
57113;SDS011;42994;51.606;9.988;2023-07-20T03:46:17;9.07;;;5.90;;
57113;SDS011;42994;51.606;9.988;2023-07-20T03:48:45;6.20;;;5.38;;
57113;SDS011;42994;51.606;9.988;2023-07-20T03:51:11;5.88;;;5.05;;
57113;SDS011;42994;51.606;9.988;2023-07-20T03:53:40;9.32;;;6.68;;
57113;SDS011;42994;51.606;9.988;2023-07-20T03:56:07;7.93;;;5.70;;
57113;SDS011;42994;51.606;9.988;2023-07-20T03:58:34;6.47;;;5.80;;
57113;SDS011;42994;51.606;9.988;2023-07-20T04:01:01;6.40;;;5.55;;
57113;SDS011;42994;51.606;9.988;2023-07-20T04:03:27;7.57;;;6.88;;
57113;SDS011;42994;51.606;9.988;2023-07-20T04:05:55;10.77;;;6.60;;
57113;SDS011;42994;51.606;9.988;2023-07-20T04:08:22;8.52;;;7.70;;
57113;SDS011;42994;51.606;9.988;2023-07-20T04:10:50;9.50;;;7.20;;
57113;SDS011;42994;51.606;9.988;2023-07-20T04:13:16;8.40;;;7.38;;
57113;SDS011;42994;51.606;9.988;2023-07-20T04:15:43;8.68;;;7.85;;
57113;SDS011;42994;51.606;9.988;2023-07-20T04:18:10;7.88;;;7.07;;
57113;SDS011;42994;51.606;9.988;2023-07-20T04:20:37;8.48;;;7.68;;
57113;SDS011;42994;51.606;9.988;2023-07-20T04:23:05;12.20;;;8.25;;
57113;SDS011;42994;51.606;9.988;2023-07-20T04:25:31;9.52;;;8.63;;
57113;SDS011;42994;51.606;9.988;2023-07-20T04:28:04;9.57;;;8.10;;
57113;SDS011;42994;51.606;9.988;2023-07-20T04:30:34;9.52;;;8.55;;
57113;SDS011;42994;51.606;9.988;2023-07-20T04:33:01;9.23;;;7.85;;
57113;SDS011;42994;51.606;9.988;2023-07-20T04:38:19;11.02;;;8.73;;
57113;SDS011;42994;51.606;9.988;2023-07-20T04:40:50;12.35;;;9.02;;
57113;SDS011;42994;51.606;9.988;2023-07-20T04:43:17;11.48;;;9.77;;
57113;SDS011;42994;51.606;9.988;2023-07-20T04:45:44;9.50;;;8.52;;
57113;SDS011;42994;51.606;9.988;2023-07-20T04:48:13;10.40;;;9.20;;
57113;SDS011;42994;51.606;9.988;2023-07-20T04:50:47;16.67;;;9.85;;
57113;SDS011;42994;51.606;9.988;2023-07-20T04:53:14;11.63;;;8.93;;
57113;SDS011;42994;51.606;9.988;2023-07-20T04:55:48;11.23;;;9.68;;
57113;SDS011;42994;51.606;9.988;2023-07-20T04:58:17;12.48;;;8.35;;
57113;SDS011;42994;51.606;9.988;2023-07-20T05:00:44;10.35;;;9.20;;
57113;SDS011;42994;51.606;9.988;2023-07-20T05:03:11;13.40;;;9.07;;
57113;SDS011;42994;51.606;9.988;2023-07-20T05:05:38;11.52;;;8.88;;
57113;SDS011;42994;51.606;9.988;2023-07-20T05:08:04;12.60;;;10.57;;
57113;SDS011;42994;51.606;9.988;2023-07-20T05:10:31;17.75;;;12.35;;
57113;SDS011;42994;51.606;9.988;2023-07-20T05:12:59;18.70;;;13.02;;
57113;SDS011;42994;51.606;9.988;2023-07-20T05:15:26;17.85;;;13.52;;
57113;SDS011;42994;51.606;9.988;2023-07-20T05:17:54;19.40;;;14.32;;
57113;SDS011;42994;51.606;9.988;2023-07-20T05:20:22;16.48;;;13.35;;
57113;SDS011;42994;51.606;9.988;2023-07-20T05:22:49;18.90;;;15.63;;
57113;SDS011;42994;51.606;9.988;2023-07-20T05:25:16;21.65;;;14.50;;
57113;SDS011;42994;51.606;9.988;2023-07-20T05:27:44;18.95;;;15.88;;
57113;SDS011;42994;51.606;9.988;2023-07-20T05:30:12;17.35;;;14.40;;
57113;SDS011;42994;51.606;9.988;2023-07-20T05:32:39;18.35;;;14.82;;
57113;SDS011;42994;51.606;9.988;2023-07-20T05:35:06;18.80;;;14.48;;
57113;SDS011;42994;51.606;9.988;2023-07-20T05:37:36;16.02;;;13.05;;
57113;SDS011;42994;51.606;9.988;2023-07-20T05:40:03;20.88;;;14.13;;
57113;SDS011;42994;51.606;9.988;2023-07-20T05:42:31;16.25;;;13.70;;
57113;SDS011;42994;51.606;9.988;2023-07-20T05:44:58;19.20;;;14.63;;
57113;SDS011;42994;51.606;9.988;2023-07-20T05:47:26;24.10;;;14.00;;
57113;SDS011;42994;51.606;9.988;2023-07-20T05:49:52;18.63;;;13.57;;
57113;SDS011;42994;51.606;9.988;2023-07-20T05:52:19;23.50;;;14.80;;
57113;SDS011;42994;51.606;9.988;2023-07-20T05:54:45;20.33;;;14.30;;
57113;SDS011;42994;51.606;9.988;2023-07-20T05:57:12;17.73;;;13.50;;
57113;SDS011;42994;51.606;9.988;2023-07-20T05:59:39;18.52;;;13.07;;
57113;SDS011;42994;51.606;9.988;2023-07-20T06:02:09;16.35;;;14.50;;
57113;SDS011;42994;51.606;9.988;2023-07-20T06:04:38;18.17;;;14.10;;
57113;SDS011;42994;51.606;9.988;2023-07-20T06:07:05;19.23;;;14.05;;
57113;SDS011;42994;51.606;9.988;2023-07-20T06:09:33;17.35;;;13.40;;
57113;SDS011;42994;51.606;9.988;2023-07-20T06:11:59;20.33;;;14.48;;
57113;SDS011;42994;51.606;9.988;2023-07-20T06:14:26;15.88;;;13.55;;
57113;SDS011;42994;51.606;9.988;2023-07-20T06:16:53;19.25;;;14.00;;
57113;SDS011;42994;51.606;9.988;2023-07-20T06:19:19;17.40;;;13.38;;
57113;SDS011;42994;51.606;9.988;2023-07-20T06:21:49;16.90;;;14.40;;
57113;SDS011;42994;51.606;9.988;2023-07-20T06:24:16;17.90;;;13.73;;
57113;SDS011;42994;51.606;9.988;2023-07-20T06:26:42;17.58;;;13.90;;
57113;SDS011;42994;51.606;9.988;2023-07-20T06:29:09;18.52;;;14.65;;
57113;SDS011;42994;51.606;9.988;2023-07-20T06:31:36;15.23;;;13.55;;
57113;SDS011;42994;51.606;9.988;2023-07-20T06:34:03;19.27;;;15.48;;
57113;SDS011;42994;51.606;9.988;2023-07-20T06:36:30;19.20;;;15.90;;
57113;SDS011;42994;51.606;9.988;2023-07-20T06:38:58;20.20;;;17.35;;
57113;SDS011;42994;51.606;9.988;2023-07-20T06:41:24;22.23;;;18.17;;
57113;SDS011;42994;51.606;9.988;2023-07-20T06:43:51;23.90;;;17.73;;
57113;SDS011;42994;51.606;9.988;2023-07-20T06:46:23;25.27;;;18.55;;
57113;SDS011;42994;51.606;9.988;2023-07-20T06:48:50;20.83;;;16.60;;
57113;SDS011;42994;51.606;9.988;2023-07-20T06:51:16;19.45;;;16.30;;
57113;SDS011;42994;51.606;9.988;2023-07-20T06:53:43;19.95;;;15.77;;
57113;SDS011;42994;51.606;9.988;2023-07-20T06:56:11;24.58;;;16.30;;
57113;SDS011;42994;51.606;9.988;2023-07-20T06:58:38;21.77;;;16.90;;
57113;SDS011;42994;51.606;9.988;2023-07-20T07:01:05;32.30;;;19.45;;
57113;SDS011;42994;51.606;9.988;2023-07-20T07:03:32;25.52;;;19.70;;
57113;SDS011;42994;51.606;9.988;2023-07-20T07:05:59;25.40;;;19.92;;
57113;SDS011;42994;51.606;9.988;2023-07-20T07:08:26;24.30;;;18.77;;
57113;SDS011;42994;51.606;9.988;2023-07-20T07:10:52;19.60;;;17.45;;
57113;SDS011;42994;51.606;9.988;2023-07-20T07:13:21;21.65;;;16.75;;
57113;SDS011;42994;51.606;9.988;2023-07-20T07:15:47;19.05;;;14.43;;
57113;SDS011;42994;51.606;9.988;2023-07-20T07:18:14;17.20;;;10.30;;
57113;SDS011;42994;51.606;9.988;2023-07-20T07:20:41;14.90;;;12.52;;
57113;SDS011;42994;51.606;9.988;2023-07-20T07:23:07;17.67;;;10.98;;
57113;SDS011;42994;51.606;9.988;2023-07-20T07:25:34;18.35;;;13.25;;
57113;SDS011;42994;51.606;9.988;2023-07-20T07:28:01;21.38;;;14.23;;
57113;SDS011;42994;51.606;9.988;2023-07-20T07:30:29;16.52;;;13.25;;
57113;SDS011;42994;51.606;9.988;2023-07-20T07:32:55;14.52;;;12.70;;
57113;SDS011;42994;51.606;9.988;2023-07-20T07:35:22;22.45;;;13.85;;
57113;SDS011;42994;51.606;9.988;2023-07-20T07:37:48;9.23;;;7.40;;
57113;SDS011;42994;51.606;9.988;2023-07-20T07:40:15;5.28;;;4.78;;
57113;SDS011;42994;51.606;9.988;2023-07-20T07:42:42;5.38;;;4.18;;
57113;SDS011;42994;51.606;9.988;2023-07-20T07:45:09;4.97;;;3.42;;
57113;SDS011;42994;51.606;9.988;2023-07-20T07:47:37;12.70;;;3.50;;
57113;SDS011;42994;51.606;9.988;2023-07-20T07:50:04;7.03;;;4.22;;
57113;SDS011;42994;51.606;9.988;2023-07-20T07:52:32;4.43;;;3.20;;
57113;SDS011;42994;51.606;9.988;2023-07-20T07:54:58;3.65;;;3.05;;
57113;SDS011;42994;51.606;9.988;2023-07-20T07:57:25;3.97;;;2.80;;
57113;SDS011;42994;51.606;9.988;2023-07-20T07:59:52;2.83;;;2.58;;
57113;SDS011;42994;51.606;9.988;2023-07-20T08:02:18;2.45;;;2.25;;
57113;SDS011;42994;51.606;9.988;2023-07-20T08:04:47;2.38;;;2.13;;
57113;SDS011;42994;51.606;9.988;2023-07-20T08:07:17;3.33;;;2.50;;
57113;SDS011;42994;51.606;9.988;2023-07-20T08:09:44;2.50;;;2.30;;
57113;SDS011;42994;51.606;9.988;2023-07-20T08:12:10;2.50;;;1.95;;
57113;SDS011;42994;51.606;9.988;2023-07-20T08:14:38;3.08;;;2.60;;
57113;SDS011;42994;51.606;9.988;2023-07-20T08:17:05;3.35;;;2.80;;
57113;SDS011;42994;51.606;9.988;2023-07-20T08:19:31;3.00;;;2.50;;
57113;SDS011;42994;51.606;9.988;2023-07-20T08:21:59;5.18;;;2.47;;
57113;SDS011;42994;51.606;9.988;2023-07-20T08:24:26;2.45;;;2.33;;
57113;SDS011;42994;51.606;9.988;2023-07-20T08:26:52;2.22;;;2.13;;
57113;SDS011;42994;51.606;9.988;2023-07-20T08:29:19;4.45;;;2.33;;
57113;SDS011;42994;51.606;9.988;2023-07-20T08:31:46;4.25;;;2.50;;
57113;SDS011;42994;51.606;9.988;2023-07-20T08:34:13;3.05;;;2.58;;
57113;SDS011;42994;51.606;9.988;2023-07-20T08:36:40;2.70;;;2.50;;
57113;SDS011;42994;51.606;9.988;2023-07-20T08:39:08;2.40;;;2.20;;
57113;SDS011;42994;51.606;9.988;2023-07-20T08:41:35;3.08;;;2.78;;
57113;SDS011;42994;51.606;9.988;2023-07-20T08:44:02;3.95;;;3.13;;
57113;SDS011;42994;51.606;9.988;2023-07-20T08:46:29;6.95;;;2.92;;
57113;SDS011;42994;51.606;9.988;2023-07-20T08:48:56;3.17;;;2.40;;
57113;SDS011;42994;51.606;9.988;2023-07-20T08:51:24;3.47;;;3.17;;
57113;SDS011;42994;51.606;9.988;2023-07-20T08:53:52;3.42;;;3.03;;
57113;SDS011;42994;51.606;9.988;2023-07-20T08:56:20;3.17;;;2.97;;
57113;SDS011;42994;51.606;9.988;2023-07-20T08:58:50;3.58;;;3.20;;
57113;SDS011;42994;51.606;9.988;2023-07-20T09:01:18;3.17;;;2.75;;
57113;SDS011;42994;51.606;9.988;2023-07-20T09:03:45;3.42;;;3.17;;
57113;SDS011;42994;51.606;9.988;2023-07-20T09:06:12;3.15;;;2.85;;
57113;SDS011;42994;51.606;9.988;2023-07-20T09:08:39;2.80;;;2.60;;
57113;SDS011;42994;51.606;9.988;2023-07-20T09:11:06;2.72;;;2.45;;
57113;SDS011;42994;51.606;9.988;2023-07-20T09:13:34;3.15;;;2.25;;
57113;SDS011;42994;51.606;9.988;2023-07-20T09:16:01;1.92;;;1.83;;
57113;SDS011;42994;51.606;9.988;2023-07-20T09:18:29;2.20;;;2.08;;
57113;SDS011;42994;51.606;9.988;2023-07-20T09:21:03;2.10;;;2.00;;
57113;SDS011;42994;51.606;9.988;2023-07-20T09:23:32;2.45;;;1.98;;
57113;SDS011;42994;51.606;9.988;2023-07-20T09:25:59;2.58;;;1.98;;
57113;SDS011;42994;51.606;9.988;2023-07-20T09:28:26;1.67;;;1.58;;
57113;SDS011;42994;51.606;9.988;2023-07-20T09:30:55;2.38;;;1.80;;
57113;SDS011;42994;51.606;9.988;2023-07-20T09:33:23;1.92;;;1.73;;
57113;SDS011;42994;51.606;9.988;2023-07-20T09:35:50;3.25;;;2.17;;
57113;SDS011;42994;51.606;9.988;2023-07-20T09:38:17;1.92;;;1.65;;
57113;SDS011;42994;51.606;9.988;2023-07-20T09:40:43;6.18;;;2.30;;
57113;SDS011;42994;51.606;9.988;2023-07-20T09:43:10;2.20;;;2.00;;
57113;SDS011;42994;51.606;9.988;2023-07-20T09:45:39;3.70;;;1.75;;
57113;SDS011;42994;51.606;9.988;2023-07-20T09:48:08;2.80;;;1.77;;
57113;SDS011;42994;51.606;9.988;2023-07-20T09:50:39;2.05;;;1.85;;
57113;SDS011;42994;51.606;9.988;2023-07-20T09:53:07;2.38;;;1.65;;
57113;SDS011;42994;51.606;9.988;2023-07-20T09:55:38;5.28;;;2.53;;
57113;SDS011;42994;51.606;9.988;2023-07-20T09:58:06;1.50;;;1.40;;
57113;SDS011;42994;51.606;9.988;2023-07-20T10:00:34;1.73;;;1.58;;
57113;SDS011;42994;51.606;9.988;2023-07-20T10:03:02;2.95;;;2.15;;
57113;SDS011;42994;51.606;9.988;2023-07-20T10:05:32;2.10;;;1.33;;
57113;SDS011;42994;51.606;9.988;2023-07-20T10:08:00;2.83;;;1.60;;
57113;SDS011;42994;51.606;9.988;2023-07-20T10:10:31;1.17;;;1.15;;
57113;SDS011;42994;51.606;9.988;2023-07-20T10:13:00;2.42;;;1.38;;
57113;SDS011;42994;51.606;9.988;2023-07-20T10:15:30;1.30;;;1.17;;
57113;SDS011;42994;51.606;9.988;2023-07-20T10:18:03;4.82;;;1.05;;
57113;SDS011;42994;51.606;9.988;2023-07-20T10:20:38;2.70;;;1.38;;
57113;SDS011;42994;51.606;9.988;2023-07-20T10:23:06;1.40;;;1.25;;
57113;SDS011;42994;51.606;9.988;2023-07-20T10:25:34;1.58;;;0.95;;
57113;SDS011;42994;51.606;9.988;2023-07-20T10:28:03;0.90;;;0.90;;
57113;SDS011;42994;51.606;9.988;2023-07-20T10:30:31;1.73;;;0.90;;
57113;SDS011;42994;51.606;9.988;2023-07-20T10:33:00;0.82;;;0.82;;
57113;SDS011;42994;51.606;9.988;2023-07-20T10:35:28;1.38;;;1.27;;
57113;SDS011;42994;51.606;9.988;2023-07-20T10:37:59;1.50;;;1.15;;
57113;SDS011;42994;51.606;9.988;2023-07-20T10:40:28;2.38;;;0.93;;
57113;SDS011;42994;51.606;9.988;2023-07-20T10:43:02;1.27;;;0.80;;
57113;SDS011;42994;51.606;9.988;2023-07-20T10:45:41;2.85;;;0.90;;
57113;SDS011;42994;51.606;9.988;2023-07-20T10:48:14;0.73;;;0.73;;
57113;SDS011;42994;51.606;9.988;2023-07-20T10:50:42;1.20;;;1.00;;
57113;SDS011;42994;51.606;9.988;2023-07-20T10:53:14;0.50;;;0.50;;
57113;SDS011;42994;51.606;9.988;2023-07-20T10:55:42;0.80;;;0.80;;
57113;SDS011;42994;51.606;9.988;2023-07-20T10:58:11;0.70;;;0.70;;
57113;SDS011;42994;51.606;9.988;2023-07-20T11:00:58;1.13;;;0.60;;
57113;SDS011;42994;51.606;9.988;2023-07-20T11:03:28;1.10;;;0.63;;
57113;SDS011;42994;51.606;9.988;2023-07-20T11:05:56;0.50;;;0.50;;
57113;SDS011;42994;51.606;9.988;2023-07-20T11:11:23;0.73;;;0.70;;
57113;SDS011;42994;51.606;9.988;2023-07-20T11:13:54;0.50;;;0.50;;
57113;SDS011;42994;51.606;9.988;2023-07-20T11:16:34;1.58;;;0.75;;
57113;SDS011;42994;51.606;9.988;2023-07-20T11:19:02;1.25;;;0.70;;
57113;SDS011;42994;51.606;9.988;2023-07-20T11:21:30;2.22;;;0.60;;
57113;SDS011;42994;51.606;9.988;2023-07-20T11:24:04;1.52;;;0.60;;
57113;SDS011;42994;51.606;9.988;2023-07-20T11:26:39;0.68;;;0.68;;
57113;SDS011;42994;51.606;9.988;2023-07-20T11:29:06;0.95;;;0.57;;
57113;SDS011;42994;51.606;9.988;2023-07-20T11:31:34;0.47;;;0.47;;
57113;SDS011;42994;51.606;9.988;2023-07-20T11:34:02;0.63;;;0.63;;
57113;SDS011;42994;51.606;9.988;2023-07-20T11:36:28;0.77;;;0.60;;
57113;SDS011;42994;51.606;9.988;2023-07-20T11:38:55;1.50;;;0.68;;
57113;SDS011;42994;51.606;9.988;2023-07-20T11:41:23;2.53;;;0.60;;
57113;SDS011;42994;51.606;9.988;2023-07-20T11:43:50;1.00;;;1.00;;
57113;SDS011;42994;51.606;9.988;2023-07-20T11:46:17;0.82;;;0.68;;
57113;SDS011;42994;51.606;9.988;2023-07-20T11:48:44;0.70;;;0.70;;
57113;SDS011;42994;51.606;9.988;2023-07-20T11:51:13;0.77;;;0.77;;
57113;SDS011;42994;51.606;9.988;2023-07-20T11:53:41;0.98;;;0.70;;
57113;SDS011;42994;51.606;9.988;2023-07-20T11:56:08;5.00;;;0.88;;
57113;SDS011;42994;51.606;9.988;2023-07-20T11:58:36;0.75;;;0.75;;
57113;SDS011;42994;51.606;9.988;2023-07-20T12:01:07;1.27;;;0.80;;
57113;SDS011;42994;51.606;9.988;2023-07-20T12:03:36;1.80;;;0.88;;
57113;SDS011;42994;51.606;9.988;2023-07-20T12:06:06;1.05;;;0.60;;
57113;SDS011;42994;51.606;9.988;2023-07-20T12:08:33;2.00;;;0.77;;
57113;SDS011;42994;51.606;9.988;2023-07-20T12:11:00;0.70;;;0.70;;
57113;SDS011;42994;51.606;9.988;2023-07-20T12:13:36;0.50;;;0.50;;
57113;SDS011;42994;51.606;9.988;2023-07-20T12:16:08;0.85;;;0.80;;
57113;SDS011;42994;51.606;9.988;2023-07-20T12:18:36;0.80;;;0.80;;
57113;SDS011;42994;51.606;9.988;2023-07-20T12:21:03;0.65;;;0.65;;
57113;SDS011;42994;51.606;9.988;2023-07-20T12:23:34;0.63;;;0.50;;
57113;SDS011;42994;51.606;9.988;2023-07-20T12:26:01;0.80;;;0.68;;
57113;SDS011;42994;51.606;9.988;2023-07-20T12:28:28;0.75;;;0.50;;
57113;SDS011;42994;51.606;9.988;2023-07-20T12:30:57;0.88;;;0.55;;
57113;SDS011;42994;51.606;9.988;2023-07-20T12:33:23;1.17;;;0.63;;
57113;SDS011;42994;51.606;9.988;2023-07-20T12:35:50;0.60;;;0.60;;
57113;SDS011;42994;51.606;9.988;2023-07-20T12:38:21;0.70;;;0.70;;
57113;SDS011;42994;51.606;9.988;2023-07-20T12:40:48;0.90;;;0.47;;
57113;SDS011;42994;51.606;9.988;2023-07-20T12:43:14;0.60;;;0.55;;
57113;SDS011;42994;51.606;9.988;2023-07-20T12:45:41;0.77;;;0.60;;
57113;SDS011;42994;51.606;9.988;2023-07-20T12:48:09;0.80;;;0.60;;
57113;SDS011;42994;51.606;9.988;2023-07-20T12:50:36;0.50;;;0.50;;
57113;SDS011;42994;51.606;9.988;2023-07-20T12:53:02;1.77;;;0.50;;
57113;SDS011;42994;51.606;9.988;2023-07-20T12:55:29;1.65;;;0.75;;
57113;SDS011;42994;51.606;9.988;2023-07-20T12:57:56;0.47;;;0.47;;
57113;SDS011;42994;51.606;9.988;2023-07-20T13:00:23;0.50;;;0.50;;
57113;SDS011;42994;51.606;9.988;2023-07-20T13:02:49;0.50;;;0.50;;
57113;SDS011;42994;51.606;9.988;2023-07-20T13:05:17;0.65;;;0.60;;
57113;SDS011;42994;51.606;9.988;2023-07-20T13:07:44;0.88;;;0.47;;
57113;SDS011;42994;51.606;9.988;2023-07-20T13:10:11;0.40;;;0.40;;
57113;SDS011;42994;51.606;9.988;2023-07-20T13:12:38;1.65;;;0.43;;
57113;SDS011;42994;51.606;9.988;2023-07-20T13:15:05;0.47;;;0.47;;
57113;SDS011;42994;51.606;9.988;2023-07-20T13:17:33;1.30;;;0.60;;
57113;SDS011;42994;51.606;9.988;2023-07-20T13:20:00;1.05;;;0.43;;
57113;SDS011;42994;51.606;9.988;2023-07-20T13:22:29;0.60;;;0.40;;
57113;SDS011;42994;51.606;9.988;2023-07-20T13:24:56;1.17;;;0.60;;
57113;SDS011;42994;51.606;9.988;2023-07-20T13:27:22;1.17;;;0.85;;
57113;SDS011;42994;51.606;9.988;2023-07-20T13:29:50;0.32;;;0.30;;
57113;SDS011;42994;51.606;9.988;2023-07-20T13:32:17;5.35;;;0.60;;
57113;SDS011;42994;51.606;9.988;2023-07-20T13:34:44;1.08;;;0.25;;
57113;SDS011;42994;51.606;9.988;2023-07-20T13:37:11;0.65;;;0.45;;
57113;SDS011;42994;51.606;9.988;2023-07-20T13:39:40;0.52;;;0.50;;
57113;SDS011;42994;51.606;9.988;2023-07-20T13:42:07;0.95;;;0.30;;
57113;SDS011;42994;51.606;9.988;2023-07-20T13:44:34;0.50;;;0.32;;
57113;SDS011;42994;51.606;9.988;2023-07-20T13:47:01;0.30;;;0.30;;
57113;SDS011;42994;51.606;9.988;2023-07-20T13:49:27;0.40;;;0.40;;
57113;SDS011;42994;51.606;9.988;2023-07-20T13:51:54;0.30;;;0.30;;
57113;SDS011;42994;51.606;9.988;2023-07-20T13:54:22;0.73;;;0.43;;
57113;SDS011;42994;51.606;9.988;2023-07-20T13:56:50;1.05;;;0.50;;
57113;SDS011;42994;51.606;9.988;2023-07-20T13:59:17;0.40;;;0.35;;
57113;SDS011;42994;51.606;9.988;2023-07-20T14:01:44;0.30;;;0.30;;
57113;SDS011;42994;51.606;9.988;2023-07-20T14:04:11;0.43;;;0.32;;
57113;SDS011;42994;51.606;9.988;2023-07-20T14:06:38;1.60;;;0.40;;
57113;SDS011;42994;51.606;9.988;2023-07-20T14:09:04;0.55;;;0.40;;
57113;SDS011;42994;51.606;9.988;2023-07-20T14:11:31;2.55;;;0.40;;
57113;SDS011;42994;51.606;9.988;2023-07-20T14:13:59;1.85;;;0.50;;
57113;SDS011;42994;51.606;9.988;2023-07-20T14:16:26;1.13;;;0.30;;
57113;SDS011;42994;51.606;9.988;2023-07-20T14:18:52;0.88;;;0.50;;
57113;SDS011;42994;51.606;9.988;2023-07-20T14:21:20;1.02;;;0.60;;
57113;SDS011;42994;51.606;9.988;2023-07-20T14:23:47;0.52;;;0.40;;
57113;SDS011;42994;51.606;9.988;2023-07-20T14:26:15;0.50;;;0.40;;
57113;SDS011;42994;51.606;9.988;2023-07-20T14:28:41;0.70;;;0.35;;
57113;SDS011;42994;51.606;9.988;2023-07-20T14:31:10;0.80;;;0.50;;
57113;SDS011;42994;51.606;9.988;2023-07-20T14:33:36;0.22;;;0.22;;
57113;SDS011;42994;51.606;9.988;2023-07-20T14:36:03;0.95;;;0.43;;
57113;SDS011;42994;51.606;9.988;2023-07-20T14:38:30;0.43;;;0.43;;
57113;SDS011;42994;51.606;9.988;2023-07-20T14:40:57;0.45;;;0.40;;
57113;SDS011;42994;51.606;9.988;2023-07-20T14:43:24;1.40;;;0.40;;
57113;SDS011;42994;51.606;9.988;2023-07-20T14:45:50;0.98;;;0.40;;
57113;SDS011;42994;51.606;9.988;2023-07-20T14:48:18;1.17;;;0.57;;
57113;SDS011;42994;51.606;9.988;2023-07-20T14:50:45;0.52;;;0.50;;
57113;SDS011;42994;51.606;9.988;2023-07-20T14:53:12;3.30;;;0.40;;
57113;SDS011;42994;51.606;9.988;2023-07-20T14:55:39;0.73;;;0.40;;